sensor_id;sensor_type;location;lat;lon;timestamp;pressure;altitude;pressure_sealevel;temperature;humidity
76827;BME280;65788;52.284;20.890;2023-02-28T00:01:10;101892.34;;;18.94;34.37
76827;BME280;65788;52.284;20.890;2023-02-28T00:03:37;101893.07;;;18.91;34.53
76827;BME280;65788;52.284;20.890;2023-02-28T00:06:05;101894.91;;;18.86;34.51
76827;BME280;65788;52.284;20.890;2023-02-28T00:08:33;101893.70;;;18.85;34.53
76827;BME280;65788;52.284;20.890;2023-02-28T00:11:05;101897.30;;;18.84;34.50
76827;BME280;65788;52.284;20.890;2023-02-28T00:13:34;101901.09;;;18.84;34.48
76827;BME280;65788;52.284;20.890;2023-02-28T00:16:05;101900.83;;;18.79;34.51
76827;BME280;65788;52.284;20.890;2023-02-28T00:18:33;101905.54;;;18.76;34.52
76827;BME280;65788;52.284;20.890;2023-02-28T00:21:00;101902.78;;;18.77;34.42
76827;BME280;65788;52.284;20.890;2023-02-28T00:23:28;101902.18;;;18.74;34.42
76827;BME280;65788;52.284;20.890;2023-02-28T00:25:55;101904.01;;;18.71;34.49
76827;BME280;65788;52.284;20.890;2023-02-28T00:28:22;101904.46;;;18.69;34.50
76827;BME280;65788;52.284;20.890;2023-02-28T00:30:50;101905.25;;;18.65;34.48
76827;BME280;65788;52.284;20.890;2023-02-28T00:33:17;101907.58;;;18.63;34.47
76827;BME280;65788;52.284;20.890;2023-02-28T00:35:46;101906.40;;;18.63;34.43
76827;BME280;65788;52.284;20.890;2023-02-28T00:38:14;101906.85;;;18.61;34.43
76827;BME280;65788;52.284;20.890;2023-02-28T00:40:41;101907.38;;;18.58;34.45
76827;BME280;65788;52.284;20.890;2023-02-28T00:43:08;101905.73;;;18.58;34.39
76827;BME280;65788;52.284;20.890;2023-02-28T00:45:35;101901.83;;;18.55;34.39
76827;BME280;65788;52.284;20.890;2023-02-28T00:48:04;101903.70;;;18.53;34.35
76827;BME280;65788;52.284;20.890;2023-02-28T00:50:31;101905.24;;;18.53;34.30
76827;BME280;65788;52.284;20.890;2023-02-28T00:52:58;101901.85;;;18.49;34.33
76827;BME280;65788;52.284;20.890;2023-02-28T00:55:25;101900.36;;;18.49;34.27
76827;BME280;65788;52.284;20.890;2023-02-28T00:57:52;101898.52;;;18.46;34.27
76827;BME280;65788;52.284;20.890;2023-02-28T01:00:20;101898.04;;;18.45;34.28
76827;BME280;65788;52.284;20.890;2023-02-28T01:02:48;101899.21;;;18.44;34.22
76827;BME280;65788;52.284;20.890;2023-02-28T01:05:16;101902.95;;;18.44;34.17
76827;BME280;65788;52.284;20.890;2023-02-28T01:07:43;101902.17;;;18.41;34.15
76827;BME280;65788;52.284;20.890;2023-02-28T01:10:11;101901.90;;;18.39;34.19
76827;BME280;65788;52.284;20.890;2023-02-28T01:12:40;101903.37;;;18.35;34.19
76827;BME280;65788;52.284;20.890;2023-02-28T01:15:10;101903.73;;;18.37;34.13
76827;BME280;65788;52.284;20.890;2023-02-28T01:17:37;101898.56;;;18.34;34.14
76827;BME280;65788;52.284;20.890;2023-02-28T01:20:04;101901.73;;;18.31;34.13
76827;BME280;65788;52.284;20.890;2023-02-28T01:22:31;101897.20;;;18.28;34.14
76827;BME280;65788;52.284;20.890;2023-02-28T01:24:58;101899.27;;;18.29;34.08
76827;BME280;65788;52.284;20.890;2023-02-28T01:27:25;101904.36;;;18.29;34.05
76827;BME280;65788;52.284;20.890;2023-02-28T01:29:56;101905.27;;;18.24;34.07
76827;BME280;65788;52.284;20.890;2023-02-28T01:32:23;101903.24;;;18.22;34.08
76827;BME280;65788;52.284;20.890;2023-02-28T01:34:49;101904.73;;;18.24;34.03
76827;BME280;65788;52.284;20.890;2023-02-28T01:37:16;101907.06;;;18.21;34.04
76827;BME280;65788;52.284;20.890;2023-02-28T01:39:43;101910.95;;;18.18;34.05
76827;BME280;65788;52.284;20.890;2023-02-28T01:42:12;101908.84;;;18.17;34.03
76827;BME280;65788;52.284;20.890;2023-02-28T01:44:59;101910.67;;;18.16;34.00
76827;BME280;65788;52.284;20.890;2023-02-28T01:47:31;101908.56;;;18.15;34.02
76827;BME280;65788;52.284;20.890;2023-02-28T01:50:06;101911.79;;;18.14;33.96
76827;BME280;65788;52.284;20.890;2023-02-28T01:52:34;101911.36;;;18.10;34.01
76827;BME280;65788;52.284;20.890;2023-02-28T01:55:05;101911.77;;;18.06;34.02
76827;BME280;65788;52.284;20.890;2023-02-28T01:57:40;101911.20;;;18.07;33.96
76827;BME280;65788;52.284;20.890;2023-02-28T02:00:13;101914.27;;;18.08;33.93
76827;BME280;65788;52.284;20.890;2023-02-28T02:02:43;101911.10;;;18.02;33.95
76827;BME280;65788;52.284;20.890;2023-02-28T02:05:16;101907.70;;;18.01;33.97
76827;BME280;65788;52.284;20.890;2023-02-28T02:07:46;101904.61;;;18.04;33.90
76827;BME280;65788;52.284;20.890;2023-02-28T02:10:18;101902.54;;;18.02;33.88
76827;BME280;65788;52.284;20.890;2023-02-28T02:18:36;101908.80;;;17.96;33.85
76827;BME280;65788;52.284;20.890;2023-02-28T02:29:42;101906.94;;;17.91;33.82
76827;BME280;65788;52.284;20.890;2023-02-28T02:35:17;101907.84;;;17.88;33.74
76827;BME280;65788;52.284;20.890;2023-02-28T02:38:35;101907.61;;;17.85;33.78
76827;BME280;65788;52.284;20.890;2023-02-28T02:41:05;101911.70;;;17.88;33.71
76827;BME280;65788;52.284;20.890;2023-02-28T02:43:51;101913.52;;;17.85;33.69
76827;BME280;65788;52.284;20.890;2023-02-28T02:46:43;101915.05;;;17.82;33.71
76827;BME280;65788;52.284;20.890;2023-02-28T02:49:13;101918.61;;;17.81;33.69
76827;BME280;65788;52.284;20.890;2023-02-28T02:51:44;101914.70;;;17.80;33.68
76827;BME280;65788;52.284;20.890;2023-02-28T02:54:17;101915.95;;;17.79;33.67
76827;BME280;65788;52.284;20.890;2023-02-28T02:56:48;101920.77;;;17.77;33.68
76827;BME280;65788;52.284;20.890;2023-02-28T02:59:20;101919.34;;;17.76;33.63
76827;BME280;65788;52.284;20.890;2023-02-28T03:02:03;101922.32;;;17.76;33.64
76827;BME280;65788;52.284;20.890;2023-02-28T03:04:35;101923.44;;;17.74;33.62
76827;BME280;65788;52.284;20.890;2023-02-28T03:07:05;101926.91;;;17.73;33.61
76827;BME280;65788;52.284;20.890;2023-02-28T03:09:34;101924.81;;;17.72;33.61
76827;BME280;65788;52.284;20.890;2023-02-28T03:12:09;101917.23;;;17.72;33.62
76827;BME280;65788;52.284;20.890;2023-02-28T03:17:23;101923.75;;;17.68;33.78
76827;BME280;65788;52.284;20.890;2023-02-28T03:20:10;101924.07;;;17.67;33.85
76827;BME280;65788;52.284;20.890;2023-02-28T03:25:59;101921.73;;;17.67;33.93
76827;BME280;65788;52.284;20.890;2023-02-28T03:28:41;101917.98;;;17.64;33.98
76827;BME280;65788;52.284;20.890;2023-02-28T03:33:43;101919.30;;;17.62;34.02
76827;BME280;65788;52.284;20.890;2023-02-28T03:36:18;101923.34;;;17.62;34.04
76827;BME280;65788;52.284;20.890;2023-02-28T03:38:52;101927.77;;;17.62;34.06
76827;BME280;65788;52.284;20.890;2023-02-28T03:41:24;101931.77;;;17.59;34.05
76827;BME280;65788;52.284;20.890;2023-02-28T03:44:03;101932.85;;;17.60;34.06
76827;BME280;65788;52.284;20.890;2023-02-28T03:46:36;101933.58;;;17.57;34.10
76827;BME280;65788;52.284;20.890;2023-02-28T03:49:18;101931.74;;;17.58;34.09
76827;BME280;65788;52.284;20.890;2023-02-28T03:51:49;101934.92;;;17.58;34.07
76827;BME280;65788;52.284;20.890;2023-02-28T03:54:28;101934.76;;;17.56;34.11
76827;BME280;65788;52.284;20.890;2023-02-28T03:57:04;101935.48;;;17.53;34.14
76827;BME280;65788;52.284;20.890;2023-02-28T03:59:39;101938.70;;;17.52;34.18
76827;BME280;65788;52.284;20.890;2023-02-28T04:02:09;101937.35;;;17.51;34.15
76827;BME280;65788;52.284;20.890;2023-02-28T04:04:36;101938.01;;;17.48;34.19
76827;BME280;65788;52.284;20.890;2023-02-28T04:07:07;101940.16;;;17.47;34.17
76827;BME280;65788;52.284;20.890;2023-02-28T04:09:35;101938.05;;;17.46;34.20
76827;BME280;65788;52.284;20.890;2023-02-28T04:12:02;101936.93;;;17.46;34.19
76827;BME280;65788;52.284;20.890;2023-02-28T04:14:29;101938.64;;;17.46;34.21
76827;BME280;65788;52.284;20.890;2023-02-28T04:16:57;101937.98;;;17.46;34.18
76827;BME280;65788;52.284;20.890;2023-02-28T04:19:24;101939.36;;;17.46;34.12
76827;BME280;65788;52.284;20.890;2023-02-28T04:21:52;101942.40;;;17.45;34.12
76827;BME280;65788;52.284;20.890;2023-02-28T04:24:25;101943.36;;;17.42;34.19
76827;BME280;65788;52.284;20.890;2023-02-28T04:26:54;101942.33;;;17.41;34.18
76827;BME280;65788;52.284;20.890;2023-02-28T04:29:25;101943.61;;;17.39;34.19
76827;BME280;65788;52.284;20.890;2023-02-28T04:31:54;101942.78;;;17.40;34.16
76827;BME280;65788;52.284;20.890;2023-02-28T04:34:23;101944.96;;;17.42;34.10
76827;BME280;65788;52.284;20.890;2023-02-28T04:36:50;101937.10;;;17.38;34.14
76827;BME280;65788;52.284;20.890;2023-02-28T04:39:17;101938.86;;;17.37;34.15
76827;BME280;65788;52.284;20.890;2023-02-28T04:41:45;101935.59;;;17.35;34.21
76827;BME280;65788;52.284;20.890;2023-02-28T04:44:13;101937.48;;;17.34;34.26
76827;BME280;65788;52.284;20.890;2023-02-28T04:46:40;101939.11;;;17.35;34.33
76827;BME280;65788;52.284;20.890;2023-02-28T04:49:11;101946.38;;;17.33;34.52
76827;BME280;65788;52.284;20.890;2023-02-28T04:51:39;101947.06;;;17.31;34.62
76827;BME280;65788;52.284;20.890;2023-02-28T04:54:06;101947.10;;;17.38;34.61
76827;BME280;65788;52.284;20.890;2023-02-28T04:56:33;101950.73;;;17.45;34.47
76827;BME280;65788;52.284;20.890;2023-02-28T04:59:00;101951.33;;;17.48;34.44
76827;BME280;65788;52.284;20.890;2023-02-28T05:01:30;101953.10;;;17.52;34.34
76827;BME280;65788;52.284;20.890;2023-02-28T05:04:00;101949.19;;;17.54;34.26
76827;BME280;65788;52.284;20.890;2023-02-28T05:06:31;101946.48;;;17.61;34.08
76827;BME280;65788;52.284;20.890;2023-02-28T05:08:59;101944.55;;;17.72;33.85
76827;BME280;65788;52.284;20.890;2023-02-28T05:11:30;101947.90;;;17.80;33.66
76827;BME280;65788;52.284;20.890;2023-02-28T05:14:03;101953.21;;;17.87;33.50
76827;BME280;65788;52.284;20.890;2023-02-28T05:16:32;101960.88;;;17.91;33.36
76827;BME280;65788;52.284;20.890;2023-02-28T05:18:59;101963.46;;;17.98;33.19
76827;BME280;65788;52.284;20.890;2023-02-28T05:21:53;101968.12;;;18.02;33.08
76827;BME280;65788;52.284;20.890;2023-02-28T05:24:21;101973.85;;;18.11;32.94
76827;BME280;65788;52.284;20.890;2023-02-28T05:26:53;101978.56;;;18.16;32.83
76827;BME280;65788;52.284;20.890;2023-02-28T05:29:22;101978.07;;;18.21;32.85
76827;BME280;65788;52.284;20.890;2023-02-28T05:31:49;101982.66;;;18.26;32.88
76827;BME280;65788;52.284;20.890;2023-02-28T05:34:16;101987.29;;;18.29;32.89
76827;BME280;65788;52.284;20.890;2023-02-28T05:36:43;101987.77;;;18.33;32.89
76827;BME280;65788;52.284;20.890;2023-02-28T05:39:10;101991.82;;;18.36;32.87
76827;BME280;65788;52.284;20.890;2023-02-28T05:41:42;101992.28;;;18.43;33.06
76827;BME280;65788;52.284;20.890;2023-02-28T05:44:10;101992.96;;;18.47;33.42
76827;BME280;65788;52.284;20.890;2023-02-28T05:46:37;101992.02;;;18.49;33.40
76827;BME280;65788;52.284;20.890;2023-02-28T05:49:05;101993.02;;;18.51;33.42
76827;BME280;65788;52.284;20.890;2023-02-28T05:51:32;101993.84;;;18.54;33.44
76827;BME280;65788;52.284;20.890;2023-02-28T05:54:01;102000.20;;;18.60;33.46
76827;BME280;65788;52.284;20.890;2023-02-28T05:56:29;101998.48;;;18.62;33.46
76827;BME280;65788;52.284;20.890;2023-02-28T05:58:56;102004.06;;;18.66;33.53
76827;BME280;65788;52.284;20.890;2023-02-28T06:01:42;102005.77;;;18.72;33.77
76827;BME280;65788;52.284;20.890;2023-02-28T06:04:17;102009.50;;;18.77;33.83
76827;BME280;65788;52.284;20.890;2023-02-28T06:06:46;102011.78;;;18.80;33.84
76827;BME280;65788;52.284;20.890;2023-02-28T06:09:15;102017.27;;;18.83;33.82
76827;BME280;65788;52.284;20.890;2023-02-28T06:11:42;102020.47;;;18.83;33.81
76827;BME280;65788;52.284;20.890;2023-02-28T06:14:15;102020.63;;;18.86;33.69
76827;BME280;65788;52.284;20.890;2023-02-28T06:16:45;102021.10;;;18.87;33.53
76827;BME280;65788;52.284;20.890;2023-02-28T06:19:12;102022.59;;;18.88;33.42
76827;BME280;65788;52.284;20.890;2023-02-28T06:21:40;102021.29;;;18.92;33.28
76827;BME280;65788;52.284;20.890;2023-02-28T06:24:08;102022.18;;;18.94;33.16
76827;BME280;65788;52.284;20.890;2023-02-28T06:26:35;102025.25;;;18.99;33.04
76827;BME280;65788;52.284;20.890;2023-02-28T06:29:03;102016.45;;;19.01;33.04
76827;BME280;65788;52.284;20.890;2023-02-28T06:31:30;102018.06;;;19.06;32.97
76827;BME280;65788;52.284;20.890;2023-02-28T06:33:58;102014.41;;;19.11;32.89
76827;BME280;65788;52.284;20.890;2023-02-28T06:36:24;102011.85;;;19.14;32.83
76827;BME280;65788;52.284;20.890;2023-02-28T06:38:51;102010.45;;;19.18;32.76
76827;BME280;65788;52.284;20.890;2023-02-28T06:41:23;102009.14;;;19.21;32.71
76827;BME280;65788;52.284;20.890;2023-02-28T06:43:51;102006.08;;;19.23;32.70
76827;BME280;65788;52.284;20.890;2023-02-28T06:46:21;102000.91;;;19.27;32.64
76827;BME280;65788;52.284;20.890;2023-02-28T06:48:49;102001.55;;;19.44;34.16
76827;BME280;65788;52.284;20.890;2023-02-28T06:51:19;101999.70;;;19.68;33.85
76827;BME280;65788;52.284;20.890;2023-02-28T06:53:49;101997.17;;;19.75;33.81
76827;BME280;65788;52.284;20.890;2023-02-28T06:56:17;101993.27;;;19.84;33.75
76827;BME280;65788;52.284;20.890;2023-02-28T06:58:49;101990.42;;;19.93;33.88
76827;BME280;65788;52.284;20.890;2023-02-28T07:01:16;101988.79;;;19.98;33.63
76827;BME280;65788;52.284;20.890;2023-02-28T07:03:44;101989.95;;;20.06;33.74
76827;BME280;65788;52.284;20.890;2023-02-28T07:06:20;101989.73;;;20.18;34.06
76827;BME280;65788;52.284;20.890;2023-02-28T07:08:51;101987.02;;;20.21;34.55
76827;BME280;65788;52.284;20.890;2023-02-28T07:11:23;101986.33;;;20.26;34.45
76827;BME280;65788;52.284;20.890;2023-02-28T07:13:53;101986.11;;;20.31;33.96
76827;BME280;65788;52.284;20.890;2023-02-28T07:16:21;101988.95;;;20.32;33.68
76827;BME280;65788;52.284;20.890;2023-02-28T07:18:48;101987.66;;;20.41;33.15
76827;BME280;65788;52.284;20.890;2023-02-28T07:21:15;101985.91;;;20.43;33.04
76827;BME280;65788;52.284;20.890;2023-02-28T07:23:44;101983.02;;;20.56;33.89
76827;BME280;65788;52.284;20.890;2023-02-28T07:26:13;101981.26;;;20.65;32.98
76827;BME280;65788;52.284;20.890;2023-02-28T07:28:42;101977.99;;;20.68;33.05
76827;BME280;65788;52.284;20.890;2023-02-28T07:31:10;101979.34;;;20.63;33.53
76827;BME280;65788;52.284;20.890;2023-02-28T07:33:37;101983.80;;;20.72;33.60
76827;BME280;65788;52.284;20.890;2023-02-28T07:36:07;101972.85;;;20.95;32.86
76827;BME280;65788;52.284;20.890;2023-02-28T07:38:35;101974.48;;;20.83;32.72
76827;BME280;65788;52.284;20.890;2023-02-28T07:41:03;101976.35;;;20.83;33.00
76827;BME280;65788;52.284;20.890;2023-02-28T07:43:31;101973.73;;;20.89;32.89
76827;BME280;65788;52.284;20.890;2023-02-28T07:46:08;101975.48;;;20.85;32.85
76827;BME280;65788;52.284;20.890;2023-02-28T07:48:35;101975.30;;;20.91;32.40
76827;BME280;65788;52.284;20.890;2023-02-28T07:51:02;101975.27;;;20.96;32.61
76827;BME280;65788;52.284;20.890;2023-02-28T07:53:30;101977.92;;;21.04;32.75
76827;BME280;65788;52.284;20.890;2023-02-28T07:56:00;101978.36;;;21.08;32.35
76827;BME280;65788;52.284;20.890;2023-02-28T07:58:28;101976.33;;;21.14;32.48
76827;BME280;65788;52.284;20.890;2023-02-28T08:00:57;101978.09;;;21.13;32.33
76827;BME280;65788;52.284;20.890;2023-02-28T08:03:31;101980.67;;;21.19;32.14
76827;BME280;65788;52.284;20.890;2023-02-28T08:05:59;101981.39;;;21.14;32.13
76827;BME280;65788;52.284;20.890;2023-02-28T08:08:26;101982.05;;;21.16;31.98
76827;BME280;65788;52.284;20.890;2023-02-28T08:10:59;101983.23;;;21.25;31.76
76827;BME280;65788;52.284;20.890;2023-02-28T08:13:28;101980.71;;;21.11;30.57
76827;BME280;65788;52.284;20.890;2023-02-28T08:15:56;101984.65;;;20.83;30.58
76827;BME280;65788;52.284;20.890;2023-02-28T08:18:23;101985.73;;;21.33;32.83
76827;BME280;65788;52.284;20.890;2023-02-28T08:20:50;101979.56;;;21.34;31.68
76827;BME280;65788;52.284;20.890;2023-02-28T08:23:19;101977.65;;;21.40;31.40
76827;BME280;65788;52.284;20.890;2023-02-28T08:25:53;101977.17;;;21.44;30.67
76827;BME280;65788;52.284;20.890;2023-02-28T08:28:21;101979.42;;;21.38;30.51
76827;BME280;65788;52.284;20.890;2023-02-28T08:30:50;101985.61;;;20.27;30.99
76827;BME280;65788;52.284;20.890;2023-02-28T08:33:17;101983.27;;;20.33;30.83
76827;BME280;65788;52.284;20.890;2023-02-28T08:35:45;101979.40;;;21.06;31.06
76827;BME280;65788;52.284;20.890;2023-02-28T08:38:12;101978.98;;;21.28;29.80
76827;BME280;65788;52.284;20.890;2023-02-28T08:40:39;101983.33;;;20.99;29.73
76827;BME280;65788;52.284;20.890;2023-02-28T08:43:07;101988.86;;;20.67;29.83
76827;BME280;65788;52.284;20.890;2023-02-28T08:45:34;101985.45;;;20.90;29.89
76827;BME280;65788;52.284;20.890;2023-02-28T08:48:04;101985.77;;;21.15;29.43
76827;BME280;65788;52.284;20.890;2023-02-28T08:50:30;101986.02;;;21.25;29.16
76827;BME280;65788;52.284;20.890;2023-02-28T08:52:59;101985.96;;;21.33;29.13
76827;BME280;65788;52.284;20.890;2023-02-28T08:55:26;101987.18;;;21.38;29.13
76827;BME280;65788;52.284;20.890;2023-02-28T08:57:53;101984.30;;;21.32;29.09
76827;BME280;65788;52.284;20.890;2023-02-28T09:00:22;101986.77;;;21.28;28.94
76827;BME280;65788;52.284;20.890;2023-02-28T09:02:49;101989.27;;;21.37;28.79
76827;BME280;65788;52.284;20.890;2023-02-28T09:05:17;101991.59;;;21.46;29.61
76827;BME280;65788;52.284;20.890;2023-02-28T09:07:44;101985.22;;;21.54;29.03
76827;BME280;65788;52.284;20.890;2023-02-28T09:10:11;101988.32;;;21.45;28.70
76827;BME280;65788;52.284;20.890;2023-02-28T09:12:38;101993.96;;;21.40;28.62
76827;BME280;65788;52.284;20.890;2023-02-28T09:15:06;101997.42;;;21.03;28.23
76827;BME280;65788;52.284;20.890;2023-02-28T09:17:33;101997.82;;;20.97;28.85
76827;BME280;65788;52.284;20.890;2023-02-28T09:20:00;102005.48;;;18.81;28.32
76827;BME280;65788;52.284;20.890;2023-02-28T09:22:27;102004.86;;;19.11;31.02
76827;BME280;65788;52.284;20.890;2023-02-28T09:24:55;102006.09;;;20.10;29.24
76827;BME280;65788;52.284;20.890;2023-02-28T09:27:22;102002.80;;;20.49;29.37
76827;BME280;65788;52.284;20.890;2023-02-28T09:29:49;102002.97;;;20.79;29.00
76827;BME280;65788;52.284;20.890;2023-02-28T09:32:16;102004.46;;;20.41;28.05
76827;BME280;65788;52.284;20.890;2023-02-28T09:34:44;102001.52;;;18.80;29.70
76827;BME280;65788;52.284;20.890;2023-02-28T09:37:11;101999.45;;;20.05;29.50
76827;BME280;65788;52.284;20.890;2023-02-28T09:39:38;101990.77;;;20.12;28.30
76827;BME280;65788;52.284;20.890;2023-02-28T09:42:06;101995.38;;;18.67;29.14
76827;BME280;65788;52.284;20.890;2023-02-28T09:44:43;101999.67;;;18.10;29.71
76827;BME280;65788;52.284;20.890;2023-02-28T09:47:31;102005.27;;;19.16;30.65
76827;BME280;65788;52.284;20.890;2023-02-28T09:52:45;101994.48;;;20.67;29.27
76827;BME280;65788;52.284;20.890;2023-02-28T09:57:43;101993.68;;;21.10;29.22
76827;BME280;65788;52.284;20.890;2023-02-28T10:00:54;101997.44;;;21.20;29.01
76827;BME280;65788;52.284;20.890;2023-02-28T10:03:38;101999.84;;;21.29;28.78
76827;BME280;65788;52.284;20.890;2023-02-28T10:09:19;102002.37;;;21.44;28.53
76827;BME280;65788;52.284;20.890;2023-02-28T10:11:26;102001.39;;;21.40;28.25
76827;BME280;65788;52.284;20.890;2023-02-28T10:14:13;102004.51;;;21.44;28.01
76827;BME280;65788;52.284;20.890;2023-02-28T10:16:46;102002.91;;;21.46;27.82
76827;BME280;65788;52.284;20.890;2023-02-28T10:21:59;101999.02;;;21.53;27.64
76827;BME280;65788;52.284;20.890;2023-02-28T10:24:59;101993.42;;;21.59;27.94
76827;BME280;65788;52.284;20.890;2023-02-28T10:27:31;101992.23;;;21.52;27.33
76827;BME280;65788;52.284;20.890;2023-02-28T10:29:59;101995.92;;;21.70;29.08
76827;BME280;65788;52.284;20.890;2023-02-28T10:32:33;101991.61;;;21.75;27.47
76827;BME280;65788;52.284;20.890;2023-02-28T10:35:20;101991.08;;;21.64;27.41
76827;BME280;65788;52.284;20.890;2023-02-28T10:37:54;101985.98;;;21.62;27.37
76827;BME280;65788;52.284;20.890;2023-02-28T10:40:35;101989.94;;;21.76;27.61
76827;BME280;65788;52.284;20.890;2023-02-28T10:46:03;101984.27;;;21.84;27.46
76827;BME280;65788;52.284;20.890;2023-02-28T10:48:40;101978.90;;;21.82;27.24
76827;BME280;65788;52.284;20.890;2023-02-28T10:51:14;101977.19;;;21.83;27.18
76827;BME280;65788;52.284;20.890;2023-02-28T11:01:46;101969.17;;;21.68;27.04
76827;BME280;65788;52.284;20.890;2023-02-28T11:07:22;101965.52;;;21.74;27.39
76827;BME280;65788;52.284;20.890;2023-02-28T11:09:55;101956.51;;;21.61;27.38
76827;BME280;65788;52.284;20.890;2023-02-28T11:12:42;101950.46;;;21.57;27.40
76827;BME280;65788;52.284;20.890;2023-02-28T11:15:25;101950.01;;;21.47;27.57
76827;BME280;65788;52.284;20.890;2023-02-28T11:20:39;101941.77;;;21.40;27.70
76827;BME280;65788;52.284;20.890;2023-02-28T11:23:12;101933.69;;;21.39;27.67
76827;BME280;65788;52.284;20.890;2023-02-28T11:25:47;101930.12;;;21.34;27.62
76827;BME280;65788;52.284;20.890;2023-02-28T11:31:15;101929.35;;;21.30;27.67
76827;BME280;65788;52.284;20.890;2023-02-28T11:33:49;101925.29;;;21.30;27.60
76827;BME280;65788;52.284;20.890;2023-02-28T11:36:24;101925.66;;;21.30;27.66
76827;BME280;65788;52.284;20.890;2023-02-28T11:38:58;101918.27;;;21.27;27.65
76827;BME280;65788;52.284;20.890;2023-02-28T11:41:54;101917.95;;;21.25;27.66
76827;BME280;65788;52.284;20.890;2023-02-28T11:47:19;101916.14;;;21.24;27.59
76827;BME280;65788;52.284;20.890;2023-02-28T11:50:10;101913.91;;;21.19;27.73
76827;BME280;65788;52.284;20.890;2023-02-28T11:53:14;101909.79;;;21.18;27.69
76827;BME280;65788;52.284;20.890;2023-02-28T11:55:54;101908.10;;;21.16;27.73
76827;BME280;65788;52.284;20.890;2023-02-28T12:01:19;101899.98;;;21.14;27.65
76827;BME280;65788;52.284;20.890;2023-02-28T12:04:09;101898.90;;;21.14;27.60
76827;BME280;65788;52.284;20.890;2023-02-28T12:14:57;101894.64;;;21.12;27.58
76827;BME280;65788;52.284;20.890;2023-02-28T12:20:33;101891.79;;;21.06;27.60
76827;BME280;65788;52.284;20.890;2023-02-28T12:26:38;101886.90;;;21.05;27.58
76827;BME280;65788;52.284;20.890;2023-02-28T12:29:27;101883.02;;;21.06;27.54
76827;BME280;65788;52.284;20.890;2023-02-28T12:32:04;101880.98;;;21.05;27.56
76827;BME280;65788;52.284;20.890;2023-02-28T12:34:57;101881.02;;;21.04;27.56
76827;BME280;65788;52.284;20.890;2023-02-28T12:37:49;101877.04;;;21.02;27.61
76827;BME280;65788;52.284;20.890;2023-02-28T12:40:20;101873.22;;;21.02;27.62
76827;BME280;65788;52.284;20.890;2023-02-28T12:42:58;101870.59;;;21.01;27.75
76827;BME280;65788;52.284;20.890;2023-02-28T12:45:50;101864.50;;;21.08;28.46
76827;BME280;65788;52.284;20.890;2023-02-28T12:48:27;101860.48;;;21.22;28.94
76827;BME280;65788;52.284;20.890;2023-02-28T12:51:00;101861.00;;;21.36;28.78
76827;BME280;65788;52.284;20.890;2023-02-28T12:53:54;101861.77;;;21.42;28.59
76827;BME280;65788;52.284;20.890;2023-02-28T12:59:41;101867.70;;;18.60;30.80
76827;BME280;65788;52.284;20.890;2023-02-28T13:02:44;101858.44;;;20.56;29.57
76827;BME280;65788;52.284;20.890;2023-02-28T13:11:02;101852.39;;;21.64;29.12
76827;BME280;65788;52.284;20.890;2023-02-28T13:13:30;101849.19;;;21.60;28.55
76827;BME280;65788;52.284;20.890;2023-02-28T13:16:08;101845.69;;;21.57;28.34
76827;BME280;65788;52.284;20.890;2023-02-28T13:18:46;101843.23;;;21.60;28.22
76827;BME280;65788;52.284;20.890;2023-02-28T13:21:26;101837.81;;;21.63;27.96
76827;BME280;65788;52.284;20.890;2023-02-28T13:29:21;101832.97;;;21.69;27.86
76827;BME280;65788;52.284;20.890;2023-02-28T13:34:39;101827.65;;;21.81;28.13
76827;BME280;65788;52.284;20.890;2023-02-28T13:39:53;101818.99;;;21.84;28.14
76827;BME280;65788;52.284;20.890;2023-02-28T13:45:25;101813.68;;;21.70;27.71
76827;BME280;65788;52.284;20.890;2023-02-28T13:48:03;101808.98;;;21.59;27.79
76827;BME280;65788;52.284;20.890;2023-02-28T13:50:40;101806.13;;;21.55;27.87
76827;BME280;65788;52.284;20.890;2023-02-28T14:01:27;101796.39;;;21.89;27.76
76827;BME280;65788;52.284;20.890;2023-02-28T14:06:33;101794.06;;;21.71;27.64
76827;BME280;65788;52.284;20.890;2023-02-28T14:11:41;101782.27;;;21.70;27.73
76827;BME280;65788;52.284;20.890;2023-02-28T14:17:03;101778.16;;;21.87;27.84
76827;BME280;65788;52.284;20.890;2023-02-28T14:19:31;101777.80;;;21.77;27.55
76827;BME280;65788;52.284;20.890;2023-02-28T14:22:42;101777.02;;;21.60;27.80
76827;BME280;65788;52.284;20.890;2023-02-28T14:25:22;101770.23;;;21.49;27.98
76827;BME280;65788;52.284;20.890;2023-02-28T14:36:21;101764.70;;;21.44;28.41
76827;BME280;65788;52.284;20.890;2023-02-28T14:38:52;101760.40;;;21.47;28.52
76827;BME280;65788;52.284;20.890;2023-02-28T14:41:52;101759.48;;;21.43;28.63
76827;BME280;65788;52.284;20.890;2023-02-28T14:44:22;101759.20;;;21.37;28.81
76827;BME280;65788;52.284;20.890;2023-02-28T14:46:53;101758.65;;;21.34;28.88
76827;BME280;65788;52.284;20.890;2023-02-28T14:49:27;101757.02;;;21.28;28.95
76827;BME280;65788;52.284;20.890;2023-02-28T14:52:22;101752.39;;;21.29;28.32
76827;BME280;65788;52.284;20.890;2023-02-28T14:54:54;101754.56;;;21.27;28.49
76827;BME280;65788;52.284;20.890;2023-02-28T14:57:28;101753.23;;;21.16;28.90
76827;BME280;65788;52.284;20.890;2023-02-28T15:00:16;101754.94;;;21.10;28.89
76827;BME280;65788;52.284;20.890;2023-02-28T15:02:43;101753.34;;;21.08;28.71
76827;BME280;65788;52.284;20.890;2023-02-28T15:07:44;101754.46;;;21.03;28.63
76827;BME280;65788;52.284;20.890;2023-02-28T15:10:24;101755.45;;;20.99;28.72
76827;BME280;65788;52.284;20.890;2023-02-28T15:13:14;101752.92;;;20.95;28.82